createdAt,value
2023-01-29T00:00:31.392Z,43.17
2023-01-29T00:03:13.529Z,43.65
2023-01-29T00:06:02.403Z,38.95
2023-01-29T00:08:51.398Z,39.50
2023-01-29T00:11:33.598Z,38.10
2023-01-29T00:14:24.006Z,38.58
2023-01-29T00:17:05.654Z,34.25
2023-01-29T00:19:53.382Z,37.78
2023-01-29T00:22:37.890Z,33.92
2023-01-29T00:25:26.439Z,33.67
2023-01-29T00:28:08.697Z,36.78
2023-01-29T00:30:58.619Z,32.38
2023-01-29T00:33:47.397Z,31.60
2023-01-29T00:36:29.301Z,33.63
2023-01-29T00:39:18.459Z,38.08
2023-01-29T00:42:23.804Z,36.78
2023-01-29T00:45:05.691Z,39.10
2023-01-29T00:47:55.419Z,36.03
2023-01-29T00:50:37.557Z,39.47
2023-01-29T00:53:25.437Z,33.78
2023-01-29T00:56:14.435Z,34.17
2023-01-29T00:58:56.581Z,28.73
2023-01-29T01:02:02.546Z,31.58
2023-01-29T01:04:52.380Z,34.63
2023-01-29T01:07:34.656Z,36.53
2023-01-29T01:10:29.423Z,31.90
2023-01-29T01:13:14.592Z,34.42
2023-01-29T01:16:03.406Z,32.47
2023-01-29T01:18:52.455Z,34.08
2023-01-29T01:21:35.714Z,30.25
2023-01-29T01:24:24.982Z,33.63
2023-01-29T01:27:06.515Z,34.33
2023-01-29T01:29:55.485Z,31.88
2023-01-29T01:32:44.408Z,33.45
2023-01-29T01:35:33.643Z,32.65
2023-01-29T01:38:17.394Z,33.55
2023-01-29T01:41:05.455Z,27.67
2023-01-29T01:43:58.633Z,32.70
2023-01-29T01:46:46.445Z,30.58
2023-01-29T01:49:28.591Z,32.22
2023-01-29T01:52:17.412Z,26.17
2023-01-29T01:55:07.396Z,33.90
2023-01-29T01:57:53.312Z,31.40
2023-01-29T02:00:42.453Z,28.55
2023-01-29T02:03:43.016Z,30.58
2023-01-29T02:06:48.447Z,28.27
2023-01-29T02:09:35.761Z,29.25
2023-01-29T02:12:28.514Z,32.65
2023-01-29T02:15:11.084Z,27.55
2023-01-29T02:17:59.424Z,24.52
2023-01-29T02:20:45.289Z,31.98
2023-01-29T02:24:20.587Z,29.25
2023-01-29T02:27:09.815Z,28.15
2023-01-29T02:30:09.405Z,25.33
2023-01-29T02:32:58.777Z,24.95
2023-01-29T02:35:56.415Z,28.13
2023-01-29T02:38:46.959Z,28.13
2023-01-29T02:41:41.422Z,27.58
2023-01-29T02:44:39.479Z,26.63
2023-01-29T02:47:29.696Z,31.60
2023-01-29T02:50:22.440Z,28.33
2023-01-29T02:53:09.667Z,30.48
2023-01-29T02:56:05.403Z,28.30
2023-01-29T02:58:50.653Z,29.23
2023-01-29T03:01:43.430Z,28.88
2023-01-29T03:04:31.630Z,30.88
2023-01-29T03:07:44.550Z,33.22
2023-01-29T03:10:49.462Z,33.42
2023-01-29T03:13:38.143Z,31.88
2023-01-29T03:16:33.492Z,33.85
2023-01-29T03:19:20.199Z,34.67
2023-01-29T03:22:12.416Z,28.75
2023-01-29T03:25:15.838Z,34.20
2023-01-29T03:28:29.463Z,34.95
2023-01-29T03:31:39.470Z,30.67
2023-01-29T03:34:28.584Z,29.30
2023-01-29T03:37:25.433Z,32.65
2023-01-29T03:40:07.725Z,32.97
2023-01-29T03:43:09.502Z,36.15
2023-01-29T03:46:00.658Z,34.17
2023-01-29T03:48:57.491Z,34.45
2023-01-29T03:54:37.543Z,36.25
2023-01-29T03:57:31.453Z,32.67
2023-01-29T04:00:21.227Z,31.10
2023-01-29T04:03:21.522Z,31.92
2023-01-29T04:06:12.294Z,33.35
2023-01-29T04:09:31.524Z,32.00
2023-01-29T04:12:20.609Z,37.88
2023-01-29T04:15:11.455Z,34.08
2023-01-29T04:18:04.518Z,33.80
2023-01-29T04:21:09.686Z,29.17
2023-01-29T04:23:58.551Z,35.63
2023-01-29T04:26:56.689Z,31.23
2023-01-29T04:29:58.551Z,31.83
2023-01-29T04:33:01.644Z,30.50
2023-01-29T04:36:13.459Z,32.03
2023-01-29T04:39:13.478Z,30.40
2023-01-29T04:42:00.951Z,28.60
2023-01-29T04:44:58.516Z,28.52
2023-01-29T04:47:50.273Z,29.67
2023-01-29T04:50:43.444Z,32.72
2023-01-29T04:53:36.690Z,32.25
2023-01-29T04:56:26.477Z,32.28
2023-01-29T04:59:13.085Z,31.30
2023-01-29T05:02:03.493Z,38.55
2023-01-29T05:07:35.490Z,33.55
2023-01-29T05:10:20.423Z,33.05
2023-01-29T05:16:02.909Z,33.80
2023-01-29T05:18:52.534Z,31.00
2023-01-29T05:21:34.471Z,36.85
2023-01-29T05:24:30.628Z,33.08
2023-01-29T05:27:36.107Z,33.83
2023-01-29T05:30:25.628Z,35.17
2023-01-29T05:33:14.287Z,33.30
2023-01-29T05:36:06.123Z,33.30
2023-01-29T05:38:48.402Z,40.80
2023-01-29T05:41:37.465Z,35.22
2023-01-29T05:44:19.381Z,34.05
2023-01-29T05:47:09.477Z,36.58
2023-01-29T05:49:57.529Z,35.17
2023-01-29T05:52:40.715Z,33.28
2023-01-29T05:55:28.472Z,30.65
2023-01-29T05:58:17.543Z,34.55
2023-01-29T06:00:59.543Z,36.38
2023-01-29T06:03:48.469Z,38.88
2023-01-29T06:06:30.914Z,35.45
2023-01-29T06:09:20.462Z,36.38
2023-01-29T06:12:02.459Z,41.47
2023-01-29T06:14:51.451Z,38.13
2023-01-29T06:17:33.387Z,32.15
2023-01-29T06:20:23.639Z,35.13
2023-01-29T06:23:05.899Z,34.88
2023-01-29T06:25:55.487Z,36.50
2023-01-29T06:28:43.484Z,36.25
2023-01-29T06:31:38.455Z,36.00
2023-01-29T06:34:26.512Z,37.45
2023-01-29T06:37:08.814Z,36.85
2023-01-29T06:39:57.476Z,37.17
2023-01-29T06:42:44.143Z,39.55
2023-01-29T06:45:33.587Z,37.13
2023-01-29T06:48:15.724Z,38.60
2023-01-29T06:51:03.485Z,35.15
2023-01-29T06:53:53.542Z,37.38
2023-01-29T06:56:35.865Z,35.70
2023-01-29T06:59:25.499Z,37.13
2023-01-29T07:02:07.880Z,35.63
2023-01-29T07:04:56.546Z,36.53
2023-01-29T07:07:38.442Z,31.58
2023-01-29T07:10:27.482Z,37.80
2023-01-29T07:13:09.509Z,38.38
2023-01-29T07:15:59.560Z,36.22
2023-01-29T07:18:41.658Z,37.33
2023-01-29T07:21:30.480Z,37.55
2023-01-29T07:24:12.470Z,38.50
2023-01-29T07:27:01.486Z,35.80
2023-01-29T07:29:43.440Z,40.47
2023-01-29T07:32:33.488Z,35.22
2023-01-29T07:35:21.677Z,35.45
2023-01-29T07:38:03.591Z,34.22
2023-01-29T07:40:45.607Z,34.83
2023-01-29T07:43:34.672Z,36.50
2023-01-29T07:46:16.686Z,35.10
2023-01-29T07:49:07.555Z,33.70
2023-01-29T07:51:49.546Z,34.25
2023-01-29T07:54:38.607Z,36.53
2023-01-29T07:57:20.509Z,35.55
2023-01-29T08:00:09.494Z,35.20
2023-01-29T08:02:51.490Z,34.63
2023-01-29T08:05:41.518Z,36.10
2023-01-29T08:08:23.461Z,35.50
2023-01-29T08:11:14.604Z,36.70
2023-01-29T08:14:03.520Z,34.65
2023-01-29T08:16:45.868Z,30.85
2023-01-29T08:19:33.507Z,32.03
2023-01-29T08:22:24.109Z,30.88
2023-01-29T08:25:08.663Z,32.17
2023-01-29T08:27:57.548Z,32.55
2023-01-29T08:30:39.689Z,30.05
2023-01-29T08:33:43.426Z,36.75
2023-01-29T08:36:38.680Z,32.47
2023-01-29T08:39:21.777Z,35.22
2023-01-29T08:42:10.565Z,31.67
2023-01-29T08:44:52.523Z,29.65
2023-01-29T08:47:41.514Z,28.27
2023-01-29T08:50:24.206Z,26.80
2023-01-29T08:53:14.502Z,28.52
2023-01-29T08:55:58.046Z,34.08
2023-01-29T08:58:46.502Z,32.35
2023-01-29T09:01:28.600Z,30.50
2023-01-29T09:04:17.648Z,26.02
2023-01-29T09:06:59.549Z,31.25
2023-01-29T09:09:48.527Z,27.83
2023-01-29T09:12:31.739Z,31.25
2023-01-29T09:15:21.533Z,25.02
2023-01-29T09:18:05.411Z,29.92
2023-01-29T09:20:54.540Z,25.25
2023-01-29T09:23:38.797Z,29.52
2023-01-29T09:26:27.590Z,29.05
2023-01-29T09:29:18.645Z,28.80
2023-01-29T09:34:48.523Z,26.48
2023-01-29T09:37:30.779Z,26.98
2023-01-29T09:40:32.583Z,29.83
2023-01-29T09:43:21.731Z,30.50
2023-01-29T09:46:19.698Z,29.85
2023-01-29T09:49:07.778Z,27.40
2023-01-29T09:51:58.525Z,28.45
2023-01-29T09:57:35.722Z,31.67
2023-01-29T10:00:29.630Z,25.63
2023-01-29T10:03:28.409Z,31.08
2023-01-29T10:06:35.598Z,28.25
2023-01-29T10:09:51.475Z,29.83
2023-01-29T10:12:58.632Z,26.23
2023-01-29T10:15:52.359Z,27.15
2023-01-29T10:19:17.644Z,31.65
2023-01-29T10:22:19.707Z,26.98
2023-01-29T10:25:08.947Z,27.80
2023-01-29T10:28:00.560Z,27.02
2023-01-29T10:30:47.945Z,27.50
2023-01-29T10:34:01.000Z,28.08
2023-01-29T10:36:53.793Z,26.58
2023-01-29T10:39:38.557Z,30.88
2023-01-29T10:42:27.947Z,24.15
2023-01-29T10:45:31.555Z,29.50
2023-01-29T10:48:58.635Z,23.88
2023-01-29T10:52:02.686Z,27.58
2023-01-29T10:55:15.016Z,30.55
2023-01-29T10:58:06.096Z,29.08
2023-01-29T11:03:36.677Z,23.88
2023-01-29T11:06:30.564Z,25.08
2023-01-29T11:09:26.392Z,25.63
2023-01-29T11:12:20.147Z,25.45
2023-01-29T11:15:08.352Z,23.10
2023-01-29T11:18:09.631Z,21.05
2023-01-29T11:20:59.562Z,26.55
2023-01-29T11:23:41.553Z,26.52
2023-01-29T11:26:35.692Z,25.80
2023-01-29T11:29:40.160Z,21.48
2023-01-29T11:32:39.616Z,24.60
2023-01-29T11:35:37.693Z,24.38
2023-01-29T11:38:29.577Z,26.02
2023-01-29T11:41:14.788Z,22.08
2023-01-29T11:44:06.581Z,22.58
2023-01-29T11:46:48.853Z,21.10
2023-01-29T11:49:40.549Z,21.00
2023-01-29T11:52:31.656Z,22.88
2023-01-29T11:55:19.002Z,19.13
2023-01-29T11:58:14.673Z,19.65
2023-01-29T12:01:00.015Z,16.83
2023-01-29T12:06:37.275Z,13.77
2023-01-29T12:09:33.576Z,17.15
2023-01-29T12:15:19.643Z,20.77
2023-01-29T12:18:20.572Z,19.52
2023-01-29T12:21:07.040Z,16.50
2023-01-29T12:24:01.680Z,18.10
2023-01-29T12:26:45.924Z,20.40
2023-01-29T12:29:44.671Z,20.77
2023-01-29T12:32:38.967Z,20.75
2023-01-29T12:35:32.623Z,22.23
2023-01-29T12:38:22.900Z,16.80
2023-01-29T12:41:16.681Z,19.35
2023-01-29T12:44:03.849Z,16.75
2023-01-29T12:46:56.766Z,16.67
2023-01-29T12:49:43.119Z,17.88
2023-01-29T12:52:47.711Z,17.13
2023-01-29T12:55:39.684Z,15.23
2023-01-29T12:58:25.386Z,15.57
2023-01-29T13:01:21.790Z,16.00
2023-01-29T13:04:08.102Z,17.73
2023-01-29T13:07:02.588Z,17.85
2023-01-29T13:09:51.061Z,17.00
2023-01-29T13:12:41.620Z,16.17
2023-01-29T13:15:28.429Z,20.05
2023-01-29T13:18:35.601Z,15.85
2023-01-29T13:21:27.644Z,16.88
2023-01-29T13:24:13.087Z,19.48
2023-01-29T13:27:02.659Z,21.10
2023-01-29T13:29:45.966Z,16.75
2023-01-29T13:32:35.609Z,15.98
2023-01-29T13:35:22.925Z,17.42
2023-01-29T13:38:12.739Z,14.00
2023-01-29T13:40:58.361Z,17.75
2023-01-29T13:43:50.642Z,15.38
2023-01-29T13:46:33.857Z,15.60
2023-01-29T13:49:44.784Z,15.90
2023-01-29T13:52:50.641Z,17.52
2023-01-29T13:55:34.877Z,19.50
2023-01-29T13:58:30.586Z,16.38
2023-01-29T14:01:14.099Z,15.63
2023-01-29T14:04:06.627Z,17.77
2023-01-29T14:06:50.771Z,20.15
2023-01-29T14:10:18.603Z,16.17
2023-01-29T14:13:28.253Z,18.42
2023-01-29T14:16:46.656Z,16.00
2023-01-29T14:19:28.593Z,17.90
2023-01-29T14:22:19.707Z,18.30
2023-01-29T14:25:06.085Z,18.08
2023-01-29T14:27:54.717Z,16.38
2023-01-29T14:31:02.745Z,16.88
2023-01-29T14:33:53.658Z,19.20
2023-01-29T14:37:03.630Z,16.70
2023-01-29T14:39:47.126Z,15.45
2023-01-29T14:42:39.591Z,20.00
2023-01-29T14:45:27.928Z,19.90
2023-01-29T14:48:49.657Z,18.90
2023-01-29T14:51:38.817Z,14.98
2023-01-29T14:54:40.705Z,16.92
2023-01-29T14:57:23.940Z,20.50
2023-01-29T15:00:15.667Z,17.45
2023-01-29T15:03:02.082Z,18.30
2023-01-29T15:05:52.674Z,21.75
2023-01-29T15:08:48.644Z,21.08
2023-01-29T15:11:42.758Z,22.40
2023-01-29T15:14:38.631Z,24.00
2023-01-29T15:17:35.857Z,21.67
2023-01-29T15:23:34.908Z,19.75
2023-01-29T15:26:30.091Z,25.20
2023-01-29T15:29:18.646Z,22.48
2023-01-29T15:32:01.780Z,23.63
2023-01-29T15:34:50.650Z,27.48
2023-01-29T15:37:47.665Z,21.20
2023-01-29T15:43:34.609Z,28.45
2023-01-29T15:46:29.740Z,24.15
2023-01-29T15:49:15.900Z,26.65
2023-01-29T15:52:05.631Z,28.33
2023-01-29T15:54:47.885Z,26.27
2023-01-29T15:57:41.654Z,29.38
2023-01-29T16:00:31.831Z,24.65
2023-01-29T16:03:24.267Z,31.15
2023-01-29T16:06:15.701Z,26.88
2023-01-29T16:08:59.361Z,30.33
2023-01-29T16:11:48.666Z,28.58
2023-01-29T16:14:32.308Z,27.85
2023-01-29T16:17:41.633Z,30.08
2023-01-29T16:20:36.416Z,32.47
2023-01-29T16:23:33.638Z,28.13
2023-01-29T16:26:18.321Z,31.52
2023-01-29T16:29:06.735Z,36.92
2023-01-29T16:32:08.774Z,32.83
2023-01-29T16:34:59.123Z,28.05
2023-01-29T16:37:49.668Z,32.97
2023-01-29T16:43:58.694Z,30.85
2023-01-29T16:46:47.215Z,28.88
2023-01-29T16:50:03.677Z,31.90
2023-01-29T16:53:03.691Z,29.23
2023-01-29T16:55:49.431Z,38.42
2023-01-29T16:58:37.643Z,33.42
2023-01-29T17:01:19.873Z,33.92
2023-01-29T17:04:13.826Z,29.70
2023-01-29T17:06:57.883Z,32.78
2023-01-29T17:09:48.660Z,30.02
2023-01-29T17:12:33.929Z,29.40
2023-01-29T17:15:42.724Z,33.83
2023-01-29T17:18:26.988Z,31.55
2023-01-29T17:21:15.647Z,25.27
2023-01-29T17:24:04.857Z,32.85
2023-01-29T17:26:48.136Z,30.77
2023-01-29T17:29:42.662Z,31.35
2023-01-29T17:32:44.569Z,32.53
2023-01-29T17:35:33.771Z,30.60
2023-01-29T17:38:25.566Z,32.90
2023-01-29T17:41:20.666Z,33.22
2023-01-29T17:44:10.740Z,30.70
2023-01-29T17:46:53.168Z,32.42
2023-01-29T17:49:42.821Z,33.13
2023-01-29T17:52:25.359Z,34.85
2023-01-29T17:55:14.953Z,37.83
2023-01-29T17:57:56.862Z,28.38
2023-01-29T18:00:46.670Z,29.58
2023-01-29T18:03:28.862Z,28.75
2023-01-29T18:06:19.646Z,40.00
2023-01-29T18:09:01.950Z,35.17
2023-01-29T18:11:50.656Z,28.92
2023-01-29T18:14:39.779Z,31.38
2023-01-29T18:17:23.655Z,29.88
2023-01-29T18:20:12.671Z,33.47
2023-01-29T18:22:55.142Z,30.55
2023-01-29T18:25:43.682Z,33.67
2023-01-29T18:28:26.772Z,34.20
2023-01-29T18:31:16.734Z,38.55
2023-01-29T18:34:03.425Z,38.53
2023-01-29T18:36:53.671Z,38.13
2023-01-29T18:39:48.727Z,37.38
2023-01-29T18:42:32.919Z,42.75
2023-01-29T18:45:22.703Z,38.03
2023-01-29T18:48:06.970Z,33.63
2023-01-29T18:50:56.691Z,37.97
2023-01-29T18:53:38.737Z,35.42
2023-01-29T18:56:27.690Z,37.88
2023-01-29T18:59:10.779Z,36.58
2023-01-29T19:02:00.718Z,33.22
2023-01-29T19:04:44.160Z,32.20
2023-01-29T19:07:33.721Z,33.75
2023-01-29T19:10:28.780Z,36.22
2023-01-29T19:13:10.968Z,35.67
2023-01-29T19:15:59.705Z,34.97
2023-01-29T19:18:41.714Z,35.33
2023-01-29T19:21:31.767Z,38.83
2023-01-29T19:24:15.558Z,37.65
2023-01-29T19:27:04.792Z,34.97
2023-01-29T19:29:46.689Z,37.03
2023-01-29T19:32:35.700Z,38.45
2023-01-29T19:35:18.014Z,34.30
2023-01-29T19:38:06.715Z,39.35
2023-01-29T19:40:56.709Z,36.92
2023-01-29T19:43:41.939Z,37.13
2023-01-29T19:46:30.766Z,35.83
2023-01-29T19:49:12.953Z,34.90
2023-01-29T19:52:02.775Z,40.03
2023-01-29T19:54:46.239Z,34.08
2023-01-29T19:57:35.791Z,35.85
2023-01-29T20:00:19.646Z,38.35
2023-01-29T20:03:08.715Z,36.88
2023-01-29T20:05:50.936Z,36.97
2023-01-29T20:08:40.781Z,44.42
2023-01-29T20:11:31.766Z,37.72
2023-01-29T20:14:16.706Z,38.85
2023-01-29T20:17:07.891Z,36.22
2023-01-29T20:19:51.108Z,38.92
2023-01-29T20:22:41.712Z,37.78
2023-01-29T20:25:24.279Z,34.50
2023-01-29T20:28:12.790Z,34.83
2023-01-29T20:30:58.063Z,37.78
2023-01-29T20:33:46.708Z,36.60
2023-01-29T20:36:41.727Z,33.60
2023-01-29T20:39:24.340Z,30.63
2023-01-29T20:42:12.772Z,31.52
2023-01-29T20:44:54.731Z,33.63
2023-01-29T20:47:44.716Z,35.85
2023-01-29T20:50:29.773Z,29.10
2023-01-29T20:53:18.759Z,32.10
2023-01-29T20:56:02.598Z,33.95
2023-01-29T20:58:53.706Z,30.33
2023-01-29T21:01:35.875Z,35.03
2023-01-29T21:04:25.721Z,34.95
2023-01-29T21:07:14.704Z,32.80
2023-01-29T21:09:57.135Z,31.38
2023-01-29T21:12:46.826Z,36.05
2023-01-29T21:15:28.986Z,32.47
2023-01-29T21:18:17.716Z,29.75
2023-01-29T21:21:02.008Z,34.92
2023-01-29T21:23:49.736Z,32.35
2023-01-29T21:26:31.990Z,34.75
2023-01-29T21:29:20.726Z,29.42
2023-01-29T21:32:10.806Z,35.45
2023-01-29T21:34:53.154Z,33.95
2023-01-29T21:37:44.736Z,32.05
2023-01-29T21:40:27.454Z,31.77
2023-01-29T21:43:21.789Z,30.10
2023-01-29T21:46:06.149Z,29.67
2023-01-29T21:48:54.692Z,31.05
2023-01-29T21:51:36.675Z,33.33
2023-01-29T21:54:26.704Z,31.45
2023-01-29T21:57:13.093Z,29.77
2023-01-29T22:00:01.773Z,33.42
2023-01-29T22:02:50.840Z,30.55
2023-01-29T22:05:34.206Z,31.15
2023-01-29T22:08:21.785Z,33.15
2023-01-29T22:11:04.958Z,29.75
2023-01-29T22:13:53.847Z,32.50
2023-01-29T22:16:36.074Z,28.20
2023-01-29T22:19:26.797Z,30.20
2023-01-29T22:22:10.180Z,32.28
2023-01-29T22:24:58.748Z,31.77
2023-01-29T22:27:42.998Z,30.30
2023-01-29T22:30:31.950Z,28.60
2023-01-29T22:33:20.813Z,24.83
2023-01-29T22:36:16.746Z,32.50
2023-01-29T22:39:05.705Z,26.15
2023-01-29T22:41:48.289Z,33.10
2023-01-29T22:44:37.837Z,28.27
2023-01-29T22:47:19.961Z,24.17
2023-01-29T22:50:07.822Z,28.08
2023-01-29T22:52:54.098Z,31.40
2023-01-29T22:55:42.841Z,25.25
2023-01-29T22:58:26.830Z,27.67
2023-01-29T23:01:11.717Z,26.42
2023-01-29T23:04:00.746Z,32.45
2023-01-29T23:06:42.955Z,27.30
2023-01-29T23:09:31.747Z,32.05
2023-01-29T23:12:17.011Z,28.48
2023-01-29T23:15:05.743Z,29.10
2023-01-29T23:17:48.993Z,28.60
2023-01-29T23:20:39.967Z,32.92
2023-01-29T23:23:22.065Z,34.88
2023-01-29T23:26:30.789Z,31.67
2023-01-29T23:29:19.730Z,34.53
2023-01-29T23:32:01.762Z,33.42
2023-01-29T23:34:51.818Z,33.38
2023-01-29T23:37:46.791Z,30.25
2023-01-29T23:40:34.733Z,41.38
2023-01-29T23:43:16.901Z,32.60
2023-01-29T23:46:06.725Z,35.53
2023-01-29T23:48:50.701Z,29.08
2023-01-29T23:51:42.733Z,37.60
2023-01-29T23:54:25.626Z,32.03
2023-01-29T23:57:07.716Z,31.27
2023-01-29T23:59:55.846Z,29.35
